createdAt,value
2023-03-25T00:00:19.571Z,2.80
2023-03-25T00:02:49.619Z,2.83
2023-03-25T00:05:20.068Z,3.08
2023-03-25T00:07:50.697Z,2.95
2023-03-25T00:10:19.125Z,3.03
2023-03-25T00:12:46.673Z,2.80
2023-03-25T00:15:16.406Z,3.00
2023-03-25T00:17:44.798Z,2.72
2023-03-25T00:20:12.772Z,3.03
2023-03-25T00:22:42.675Z,2.70
2023-03-25T00:25:13.619Z,2.30
2023-03-25T00:27:41.078Z,2.10
2023-03-25T00:30:09.356Z,2.92
2023-03-25T00:32:36.967Z,2.30
2023-03-25T00:35:04.709Z,2.75
2023-03-25T00:37:32.130Z,2.67
2023-03-25T00:39:59.528Z,3.20
2023-03-25T00:42:27.036Z,2.85
2023-03-25T00:44:54.899Z,2.90
2023-03-25T00:47:23.852Z,2.90
2023-03-25T00:49:51.967Z,3.00
2023-03-25T00:52:22.987Z,2.80
2023-03-25T00:54:52.772Z,2.95
2023-03-25T00:57:22.314Z,3.17
2023-03-25T00:59:51.391Z,3.70
2023-03-25T01:02:21.588Z,3.30
2023-03-25T01:04:49.836Z,4.00
2023-03-25T01:07:20.251Z,5.07
2023-03-25T01:09:48.021Z,5.03
2023-03-25T01:12:16.603Z,5.15
2023-03-25T01:14:44.116Z,4.90
2023-03-25T01:17:11.761Z,4.90
2023-03-25T01:19:39.234Z,5.28
2023-03-25T01:22:07.165Z,5.00
2023-03-25T01:24:34.893Z,4.97
2023-03-25T01:27:02.292Z,4.78
2023-03-25T01:29:30.394Z,5.15
2023-03-25T01:31:58.697Z,5.25
2023-03-25T01:34:26.310Z,4.78
2023-03-25T01:36:55.183Z,4.57
2023-03-25T01:39:22.882Z,4.95
2023-03-25T01:41:51.628Z,4.45
2023-03-25T01:44:24.611Z,4.65
2023-03-25T01:46:54.268Z,4.80
2023-03-25T01:49:26.910Z,5.18
2023-03-25T01:54:24.676Z,4.70
2023-03-25T01:56:53.650Z,4.53
2023-03-25T01:59:24.942Z,5.35
2023-03-25T02:01:53.801Z,4.63
2023-03-25T02:04:39.573Z,5.57
2023-03-25T02:07:10.664Z,4.75
2023-03-25T02:09:39.036Z,4.85
2023-03-25T02:12:07.923Z,5.28
2023-03-25T02:14:37.183Z,4.97
2023-03-25T02:17:29.250Z,4.78
2023-03-25T02:20:08.902Z,4.88
2023-03-25T02:23:14.159Z,4.80
2023-03-25T02:26:06.186Z,6.03
2023-03-25T02:29:05.180Z,5.13
2023-03-25T02:32:14.077Z,5.22
2023-03-25T02:35:07.852Z,4.90
2023-03-25T02:38:06.341Z,5.03
2023-03-25T02:40:36.401Z,4.93
2023-03-25T02:43:15.725Z,4.70
2023-03-25T02:45:51.597Z,4.35
2023-03-25T02:48:32.829Z,4.45
2023-03-25T02:51:08.311Z,4.60
2023-03-25T02:53:37.542Z,4.35
2023-03-25T02:56:12.465Z,4.78
2023-03-25T02:58:41.859Z,5.00
2023-03-25T03:01:10.161Z,5.00
2023-03-25T03:03:37.871Z,5.60
2023-03-25T03:06:06.589Z,4.75
2023-03-25T03:08:43.784Z,5.55
2023-03-25T03:11:22.689Z,4.80
2023-03-25T03:14:01.819Z,5.45
2023-03-25T03:16:42.804Z,4.90
2023-03-25T03:19:34.370Z,5.28
2023-03-25T03:22:21.316Z,5.20
2023-03-25T03:24:53.979Z,5.25
2023-03-25T03:27:34.142Z,5.35
2023-03-25T03:30:18.189Z,4.82
2023-03-25T03:33:01.145Z,4.35
2023-03-25T03:35:33.421Z,5.00
2023-03-25T03:40:33.467Z,4.97
2023-03-25T03:43:06.829Z,5.18
2023-03-25T03:45:46.464Z,5.10
2023-03-25T03:48:29.613Z,4.88
2023-03-25T03:51:07.847Z,5.32
2023-03-25T03:53:42.101Z,5.38
2023-03-25T03:56:26.020Z,5.28
2023-03-25T03:58:58.512Z,5.13
2023-03-25T04:01:35.342Z,5.30
2023-03-25T04:04:10.788Z,6.50
2023-03-25T04:06:42.240Z,5.78
2023-03-25T04:09:27.491Z,5.20
2023-03-25T04:12:07.107Z,5.75
2023-03-25T04:14:34.745Z,5.68
2023-03-25T04:17:02.106Z,5.60
2023-03-25T04:19:29.533Z,5.28
2023-03-25T04:21:56.955Z,6.40
2023-03-25T04:24:26.656Z,5.15
2023-03-25T04:26:54.036Z,5.53
2023-03-25T04:29:21.424Z,6.05
2023-03-25T04:31:49.949Z,5.60
2023-03-25T04:34:17.560Z,5.80
2023-03-25T04:36:44.968Z,5.50
2023-03-25T04:39:12.771Z,6.10
2023-03-25T04:41:40.152Z,5.72
2023-03-25T04:44:10.578Z,6.03
2023-03-25T04:46:38.285Z,6.00
2023-03-25T04:49:06.657Z,5.63
2023-03-25T04:51:34.398Z,6.07
2023-03-25T04:54:01.847Z,6.30
2023-03-25T04:56:29.346Z,6.70
2023-03-25T04:58:56.768Z,7.13
2023-03-25T05:01:30.627Z,6.22
2023-03-25T05:04:07.117Z,7.13
2023-03-25T05:06:36.216Z,6.70
2023-03-25T05:09:05.230Z,7.18
2023-03-25T05:11:34.344Z,6.78
2023-03-25T05:14:01.772Z,7.05
2023-03-25T05:16:29.683Z,6.75
2023-03-25T05:18:57.074Z,7.28
2023-03-25T05:21:24.554Z,7.90
2023-03-25T05:23:52.732Z,7.43
2023-03-25T05:26:20.856Z,7.72
2023-03-25T05:28:51.413Z,8.05
2023-03-25T05:31:18.994Z,8.68
2023-03-25T05:33:46.416Z,8.40
2023-03-25T05:36:16.380Z,8.23
2023-03-25T05:38:44.345Z,8.00
2023-03-25T05:41:16.553Z,7.93
2023-03-25T05:46:15.645Z,8.68
2023-03-25T05:48:43.537Z,8.38
2023-03-25T05:51:21.982Z,8.15
2023-03-25T05:53:50.074Z,8.30
2023-03-25T05:56:19.390Z,8.60
2023-03-25T05:58:47.786Z,8.40
2023-03-25T06:01:31.228Z,7.72
2023-03-25T06:04:01.690Z,7.47
2023-03-25T06:06:30.002Z,7.65
2023-03-25T06:08:58.628Z,8.05
2023-03-25T06:11:26.208Z,7.38
2023-03-25T06:13:53.600Z,7.28
2023-03-25T06:16:23.377Z,7.38
2023-03-25T06:18:56.239Z,7.10
2023-03-25T06:21:24.257Z,6.88
2023-03-25T06:23:51.618Z,6.55
2023-03-25T06:26:20.511Z,6.38
2023-03-25T06:28:48.262Z,6.40
2023-03-25T06:31:17.309Z,6.60
2023-03-25T06:33:45.780Z,5.32
2023-03-25T06:36:18.641Z,4.80
2023-03-25T06:38:50.507Z,5.00
2023-03-25T06:41:20.781Z,4.72
2023-03-25T06:43:55.468Z,4.85
2023-03-25T06:46:41.247Z,4.82
2023-03-25T06:49:24.022Z,4.13
2023-03-25T06:51:54.356Z,4.72
2023-03-25T06:54:22.766Z,4.32
2023-03-25T06:56:50.226Z,4.35
2023-03-25T06:59:17.697Z,4.20
2023-03-25T07:01:45.152Z,4.55
2023-03-25T07:04:12.517Z,4.65
2023-03-25T07:06:40.664Z,4.00
2023-03-25T07:09:08.632Z,4.75
2023-03-25T07:11:36.220Z,4.13
2023-03-25T07:14:03.671Z,4.80
2023-03-25T07:16:31.383Z,4.75
2023-03-25T07:18:59.168Z,4.55
2023-03-25T07:21:27.135Z,4.07
2023-03-25T07:23:54.625Z,4.38
2023-03-25T07:26:22.097Z,4.50
2023-03-25T07:28:49.441Z,3.95
2023-03-25T07:31:17.143Z,4.30
2023-03-25T07:33:44.751Z,4.13
2023-03-25T07:36:14.291Z,3.70
2023-03-25T07:38:41.775Z,3.67
2023-03-25T07:41:11.783Z,4.45
2023-03-25T07:43:43.739Z,3.97
2023-03-25T07:46:21.289Z,4.03
2023-03-25T07:48:48.725Z,4.40
2023-03-25T07:51:16.214Z,3.90
2023-03-25T07:53:45.326Z,4.20
2023-03-25T07:56:13.813Z,4.38
2023-03-25T07:58:42.108Z,4.43
2023-03-25T08:01:09.561Z,4.63
2023-03-25T08:03:39.832Z,4.60
2023-03-25T08:06:08.378Z,4.97
2023-03-25T08:08:36.269Z,4.70
2023-03-25T08:11:04.130Z,4.70
2023-03-25T08:13:31.692Z,5.93
2023-03-25T08:15:59.231Z,5.20
2023-03-25T08:18:26.904Z,5.80
2023-03-25T08:20:54.464Z,6.35
2023-03-25T08:23:22.379Z,6.57
2023-03-25T08:25:51.577Z,6.20
2023-03-25T08:28:23.165Z,6.40
2023-03-25T08:30:54.950Z,6.47
2023-03-25T08:33:27.519Z,6.82
2023-03-25T08:38:25.476Z,7.05
2023-03-25T08:40:53.005Z,5.85
2023-03-25T08:43:20.410Z,6.15
2023-03-25T08:45:47.870Z,6.47
2023-03-25T08:48:15.500Z,6.47
2023-03-25T08:50:43.337Z,6.45
2023-03-25T08:53:10.994Z,7.25
2023-03-25T08:55:38.380Z,7.32
2023-03-25T08:58:08.185Z,7.78
2023-03-25T09:00:37.854Z,7.13
2023-03-25T09:03:06.281Z,6.38
2023-03-25T09:05:33.820Z,6.85
2023-03-25T09:08:02.130Z,7.38
2023-03-25T09:10:29.512Z,7.03
2023-03-25T09:12:57.143Z,7.30
2023-03-25T09:15:24.546Z,7.10
2023-03-25T09:17:52.131Z,7.60
2023-03-25T09:20:19.633Z,7.88
2023-03-25T09:22:47.000Z,6.82
2023-03-25T09:25:14.466Z,7.63
2023-03-25T09:27:41.969Z,7.60
2023-03-25T09:30:10.224Z,7.85
2023-03-25T09:32:37.764Z,6.82
2023-03-25T09:35:05.709Z,7.60
2023-03-25T09:37:33.313Z,7.70
2023-03-25T09:40:00.742Z,8.23
2023-03-25T09:42:34.245Z,8.02
2023-03-25T09:45:21.493Z,8.13
2023-03-25T09:48:30.236Z,8.80
2023-03-25T09:51:25.554Z,8.20
2023-03-25T09:54:36.359Z,8.63
2023-03-25T09:57:08.640Z,7.90
2023-03-25T10:02:21.248Z,7.50
2023-03-25T10:05:34.780Z,7.00
2023-03-25T10:08:37.944Z,7.82
2023-03-25T10:11:12.713Z,6.32
2023-03-25T10:14:01.811Z,6.90
2023-03-25T10:16:43.870Z,7.32
2023-03-25T10:19:43.770Z,5.85
2023-03-25T10:22:36.576Z,5.80
2023-03-25T10:25:09.565Z,6.45
2023-03-25T10:27:45.589Z,5.80
2023-03-25T10:30:30.887Z,6.32
2023-03-25T10:33:04.624Z,5.72
2023-03-25T10:35:47.704Z,5.55
2023-03-25T10:38:21.345Z,5.72
2023-03-25T10:40:51.660Z,4.85
2023-03-25T10:43:27.481Z,4.70
2023-03-25T10:46:01.126Z,4.32
2023-03-25T10:48:31.165Z,4.47
2023-03-25T10:51:13.912Z,4.07
2023-03-25T10:53:42.617Z,4.45
2023-03-25T10:56:15.031Z,4.03
2023-03-25T10:58:45.866Z,4.50
2023-03-25T11:01:17.937Z,5.55
2023-03-25T11:03:53.604Z,4.82
2023-03-25T11:06:33.277Z,3.47
2023-03-25T11:09:14.108Z,3.38
2023-03-25T11:11:43.221Z,4.13
2023-03-25T11:14:12.207Z,4.68
2023-03-25T11:16:59.904Z,4.25
2023-03-25T11:19:32.340Z,4.15
2023-03-25T11:22:07.670Z,3.50
2023-03-25T11:24:42.493Z,3.13
2023-03-25T11:27:11.507Z,3.15
2023-03-25T11:29:38.921Z,2.88
2023-03-25T11:32:13.064Z,22.33
2023-03-25T11:34:43.822Z,5.35
2023-03-25T11:37:18.462Z,2.55
2023-03-25T11:39:52.060Z,2.20
2023-03-25T11:42:42.893Z,2.08
2023-03-25T11:45:20.403Z,2.00
2023-03-25T11:47:48.385Z,1.48
2023-03-25T11:50:25.220Z,1.60
2023-03-25T11:52:58.646Z,1.80
2023-03-25T11:55:46.637Z,1.58
2023-03-25T11:58:18.459Z,1.95
2023-03-25T12:00:51.297Z,1.75
2023-03-25T12:03:27.081Z,1.88
2023-03-25T12:05:58.516Z,1.58
2023-03-25T12:08:30.851Z,1.83
2023-03-25T12:14:00.990Z,1.50
2023-03-25T12:16:58.782Z,1.50
2023-03-25T12:19:50.393Z,1.58
2023-03-25T12:22:23.621Z,1.17
2023-03-25T12:25:17.250Z,0.93
2023-03-25T12:28:20.415Z,1.17
2023-03-25T12:30:48.585Z,1.00
2023-03-25T12:33:34.907Z,1.02
2023-03-25T12:36:41.787Z,1.25
2023-03-25T12:39:42.195Z,1.10
2023-03-25T12:42:40.239Z,1.27
2023-03-25T12:45:37.800Z,1.35
2023-03-25T12:48:25.524Z,1.33
2023-03-25T12:51:17.871Z,1.42
2023-03-25T12:54:02.817Z,1.90
2023-03-25T12:57:09.779Z,1.40
2023-03-25T13:00:08.180Z,0.90
2023-03-25T13:02:53.889Z,1.15
2023-03-25T13:05:54.324Z,1.10
2023-03-25T13:08:28.371Z,1.40
2023-03-25T13:11:14.207Z,1.25
2023-03-25T13:13:44.490Z,1.27
2023-03-25T13:16:23.705Z,1.10
2023-03-25T13:18:58.085Z,1.13
2023-03-25T13:21:39.311Z,1.30
2023-03-25T13:24:17.586Z,1.25
2023-03-25T13:26:47.219Z,1.40
2023-03-25T13:29:43.289Z,1.65
2023-03-25T13:32:25.262Z,1.48
2023-03-25T13:35:02.216Z,1.20
2023-03-25T13:37:37.073Z,1.33
2023-03-25T13:40:10.970Z,0.80
2023-03-25T13:42:52.131Z,1.02
2023-03-25T13:45:24.008Z,1.73
2023-03-25T13:48:02.049Z,1.30
2023-03-25T13:50:31.771Z,0.98
2023-03-25T13:53:25.834Z,0.90
2023-03-25T13:56:02.525Z,1.00
2023-03-25T13:58:52.926Z,1.00
2023-03-25T14:01:32.311Z,1.10
2023-03-25T14:04:14.646Z,1.00
2023-03-25T14:06:50.710Z,2.97
2023-03-25T14:09:32.750Z,1.38
2023-03-25T14:12:00.256Z,0.88
2023-03-25T14:14:33.028Z,0.77
2023-03-25T14:17:01.446Z,0.90
2023-03-25T14:19:41.247Z,1.20
2023-03-25T14:22:16.100Z,1.10
2023-03-25T14:24:45.003Z,1.25
2023-03-25T14:27:30.063Z,1.42
2023-03-25T14:30:08.610Z,1.50
2023-03-25T14:32:38.771Z,1.30
2023-03-25T14:35:31.249Z,1.45
2023-03-25T14:40:54.661Z,1.58
2023-03-25T14:43:34.341Z,1.70
2023-03-25T14:46:11.525Z,1.60
2023-03-25T14:48:46.528Z,1.35
2023-03-25T14:51:43.775Z,1.52
2023-03-25T14:54:29.657Z,1.38
2023-03-25T14:57:01.794Z,1.30
2023-03-25T15:02:14.124Z,1.20
2023-03-25T15:04:41.911Z,1.27
2023-03-25T15:07:16.654Z,1.13
2023-03-25T15:09:53.751Z,1.05
2023-03-25T15:12:25.364Z,1.10
2023-03-25T15:15:03.083Z,1.00
2023-03-25T15:17:46.450Z,0.88
2023-03-25T15:20:29.276Z,1.08
2023-03-25T15:23:18.411Z,0.90
2023-03-25T15:25:48.577Z,1.00
2023-03-25T15:28:31.146Z,0.90
2023-03-25T15:34:13.412Z,0.88
2023-03-25T15:37:21.265Z,0.80
2023-03-25T15:39:54.761Z,1.20
2023-03-25T15:42:42.620Z,1.00
2023-03-25T15:45:26.291Z,1.00
2023-03-25T15:48:23.413Z,0.63
2023-03-25T15:51:21.132Z,0.60
2023-03-25T15:54:10.381Z,4.60
2023-03-25T15:56:42.287Z,1.20
2023-03-25T15:59:48.505Z,3.70
2023-03-25T16:02:26.758Z,5.88
2023-03-25T16:04:55.742Z,7.60
2023-03-25T16:07:26.314Z,4.13
2023-03-25T16:09:55.508Z,1.20
2023-03-25T16:12:25.399Z,1.92
2023-03-25T16:14:53.134Z,1.20
2023-03-25T16:17:22.810Z,4.60
2023-03-25T16:19:50.546Z,3.05
2023-03-25T16:22:28.068Z,0.93
2023-03-25T16:24:58.651Z,1.23
2023-03-25T16:27:42.200Z,1.00
2023-03-25T16:30:30.486Z,0.70
2023-03-25T16:33:14.575Z,0.80
2023-03-25T16:35:44.952Z,0.90
2023-03-25T16:38:18.554Z,0.80
2023-03-25T16:40:49.805Z,0.90
2023-03-25T16:43:23.472Z,0.80
2023-03-25T16:45:53.094Z,0.93
2023-03-25T16:48:42.057Z,0.80
2023-03-25T16:51:35.312Z,0.95
2023-03-25T16:54:10.646Z,0.93
2023-03-25T16:56:39.096Z,0.85
2023-03-25T16:59:18.214Z,0.90
2023-03-25T17:01:53.090Z,0.75
2023-03-25T17:04:42.559Z,0.88
2023-03-25T17:07:20.646Z,0.80
2023-03-25T17:09:52.472Z,0.90
2023-03-25T17:12:22.852Z,0.80
2023-03-25T17:14:52.557Z,0.93
2023-03-25T17:17:22.992Z,0.90
2023-03-25T17:19:52.303Z,0.85
2023-03-25T17:22:36.261Z,1.00
2023-03-25T17:25:35.907Z,1.08
2023-03-25T17:28:18.510Z,1.17
2023-03-25T17:30:46.383Z,1.10
2023-03-25T17:33:46.750Z,0.90
2023-03-25T17:36:16.833Z,0.93
2023-03-25T17:38:46.224Z,1.20
2023-03-25T17:41:17.033Z,1.00
2023-03-25T17:43:48.211Z,1.55
2023-03-25T17:46:21.804Z,1.20
2023-03-25T17:48:50.851Z,1.08
2023-03-25T17:51:19.683Z,1.35
2023-03-25T17:53:48.253Z,1.35
2023-03-25T17:56:21.048Z,1.23
2023-03-25T17:58:48.502Z,1.40
2023-03-25T18:01:15.932Z,1.45
2023-03-25T18:03:43.404Z,1.00
2023-03-25T18:06:12.913Z,1.10
2023-03-25T18:08:40.581Z,1.40
2023-03-25T18:11:10.999Z,1.35
2023-03-25T18:13:41.036Z,1.23
2023-03-25T18:16:10.767Z,1.10
2023-03-25T18:18:38.221Z,1.20
2023-03-25T18:21:09.672Z,1.00
2023-03-25T18:23:37.092Z,1.20
2023-03-25T18:26:06.522Z,1.30
2023-03-25T18:28:35.881Z,1.70
2023-03-25T18:31:03.871Z,1.70
2023-03-25T18:33:34.611Z,1.40
2023-03-25T18:36:02.132Z,2.40
2023-03-25T18:38:29.620Z,2.33
2023-03-25T18:40:57.459Z,3.03
2023-03-25T18:43:25.022Z,2.85
2023-03-25T18:45:53.122Z,4.18
2023-03-25T18:48:21.593Z,3.47
2023-03-25T18:50:57.607Z,5.45
2023-03-25T18:53:29.499Z,3.80
2023-03-25T18:56:00.095Z,5.20
2023-03-25T19:05:08.511Z,11.68
2023-03-25T19:07:35.953Z,13.73
2023-03-25T19:10:04.204Z,15.48
2023-03-25T19:12:31.631Z,17.63
2023-03-25T19:14:59.030Z,16.52
2023-03-25T19:17:26.627Z,18.15
2023-03-25T19:19:54.104Z,17.63
2023-03-25T19:22:21.512Z,19.13
2023-03-25T19:24:49.474Z,18.25
2023-03-25T19:27:17.026Z,18.05
2023-03-25T19:29:44.410Z,17.30
2023-03-25T19:32:13.367Z,19.45
2023-03-25T19:34:40.908Z,18.50
2023-03-25T19:37:08.410Z,18.70
2023-03-25T19:39:35.848Z,17.55
2023-03-25T19:42:04.317Z,18.67
2023-03-25T19:44:31.878Z,18.80
2023-03-25T19:46:59.249Z,17.75
2023-03-25T19:49:39.186Z,18.02
2023-03-25T19:52:08.102Z,18.70
2023-03-25T20:00:22.214Z,16.65
2023-03-25T20:02:52.190Z,17.55
2023-03-25T20:05:21.044Z,15.07
2023-03-25T20:07:52.077Z,16.02
2023-03-25T20:10:22.298Z,15.07
2023-03-25T20:12:50.746Z,15.65
2023-03-25T20:15:19.671Z,15.65
2023-03-25T20:17:49.833Z,14.18
2023-03-25T20:20:17.951Z,14.55
2023-03-25T20:22:48.260Z,15.25
2023-03-25T20:25:16.804Z,15.10
2023-03-25T20:27:45.489Z,14.80
2023-03-25T20:30:16.288Z,15.85
2023-03-25T20:32:45.707Z,14.82
2023-03-25T20:35:16.403Z,14.80
2023-03-25T20:37:45.671Z,14.05
2023-03-25T20:40:17.155Z,14.32
2023-03-25T20:42:46.543Z,13.53
2023-03-25T20:45:17.853Z,15.75
2023-03-25T20:47:45.794Z,14.73
2023-03-25T20:50:16.711Z,15.43
2023-03-25T20:52:44.957Z,14.15
2023-03-25T20:55:13.162Z,14.60
2023-03-25T20:57:41.356Z,15.05
2023-03-25T21:00:13.015Z,14.90
2023-03-25T21:02:41.866Z,13.73
2023-03-25T21:05:09.655Z,15.68
2023-03-25T21:07:37.783Z,15.85
2023-03-25T21:10:06.676Z,14.52
2023-03-25T21:12:43.290Z,15.05
2023-03-25T21:15:14.538Z,15.10
2023-03-25T21:17:43.173Z,14.90
2023-03-25T21:20:11.298Z,14.55
2023-03-25T21:22:43.475Z,14.82
2023-03-25T21:25:14.386Z,15.82
2023-03-25T21:27:45.045Z,16.33
2023-03-25T21:30:14.252Z,14.52
2023-03-25T21:32:41.961Z,15.25
2023-03-25T21:35:10.339Z,15.55
2023-03-25T21:37:39.634Z,15.45
2023-03-25T21:40:10.891Z,16.13
2023-03-25T21:42:41.382Z,15.35
2023-03-25T21:45:11.909Z,17.13
2023-03-25T21:47:41.274Z,15.13
2023-03-25T21:50:10.601Z,14.75
2023-03-25T21:52:48.474Z,14.45
2023-03-25T21:55:16.814Z,16.65
2023-03-25T21:57:47.799Z,14.90
2023-03-25T22:00:17.612Z,16.23
2023-03-25T22:02:46.586Z,15.68
2023-03-25T22:05:16.385Z,16.50
2023-03-25T22:07:43.961Z,14.82
2023-03-25T22:10:11.822Z,16.95
2023-03-25T22:12:39.441Z,17.05
2023-03-25T22:15:07.709Z,16.40
2023-03-25T22:17:35.368Z,15.68
2023-03-25T22:20:05.301Z,16.92
2023-03-25T22:22:33.569Z,17.33
2023-03-25T22:25:01.221Z,15.70
2023-03-25T22:27:28.660Z,16.17
2023-03-25T22:29:56.130Z,15.45
2023-03-25T22:32:27.147Z,15.98
2023-03-25T22:34:54.971Z,17.23
2023-03-25T22:37:22.485Z,15.05
2023-03-25T22:39:50.351Z,15.82
2023-03-25T22:42:17.822Z,15.93
2023-03-25T22:44:45.414Z,16.02
2023-03-25T22:47:12.900Z,15.80
2023-03-25T22:49:40.310Z,15.68
2023-03-25T22:52:07.746Z,15.98
2023-03-25T22:54:35.311Z,16.25
2023-03-25T22:57:02.938Z,16.50
2023-03-25T22:59:30.485Z,15.57
2023-03-25T23:01:58.035Z,17.17
2023-03-25T23:04:25.656Z,15.45
2023-03-25T23:07:06.832Z,16.88
2023-03-25T23:12:11.542Z,16.77
2023-03-25T23:14:40.608Z,15.95
2023-03-25T23:17:10.357Z,16.42
2023-03-25T23:19:37.858Z,17.33
2023-03-25T23:22:05.586Z,15.85
2023-03-25T23:24:37.083Z,16.45
2023-03-25T23:27:09.545Z,16.98
2023-03-25T23:29:37.419Z,16.83
2023-03-25T23:32:07.016Z,16.95
2023-03-25T23:34:34.955Z,16.92
2023-03-25T23:37:03.243Z,16.17
2023-03-25T23:39:31.046Z,16.67
2023-03-25T23:41:58.480Z,17.00
2023-03-25T23:44:26.135Z,16.23
2023-03-25T23:46:53.690Z,14.75
2023-03-25T23:49:21.175Z,15.35
2023-03-25T23:51:48.736Z,15.02
2023-03-25T23:54:16.941Z,16.02
2023-03-25T23:56:44.557Z,14.52
2023-03-25T23:59:12.928Z,16.35
